Airfield :







YOU CAN JOIN US ON...

 
LOGIN :

Register | Disclaimer

   EN    FR    IT 

 









Legend :    VFR   Marginal VFR   IFR   Intensive IFR   Very Intensive IFR
Visi :
Ceiling :
>= 8 km
>= 3000ft
5 to 8 km
1000 to 3000 ft
1500m to 5 km
500 to 1000 ft
800 to 1500m
200 to 500 ft
< 800m
< 200 ft
Symbols :   Thunderstorms  Fog  Heavy snow  Heavy precipitations  Wind > 20 kt






- Airport Elevation : 1825 ft


K8B0 - Steven A. Bean Municipal

CURRENT METAR :
  • 170535Z AUTO 11012G17KT 10SM -RA OVC008 06/05 A2956 RMK AO2

EXPIRED METARs :
  • 170515Z AUTO 10009G18KT 10SM OVC008 06/04 A2957 RMK AO2
  • 170455Z AUTO 11011KT 10SM BKN010 OVC014 06/04 A2960 RMK AO2
  • 170435Z AUTO 12010G16KT 10SM BKN012 OVC017 07/04 A2962 RMK AO2
  • 170415Z AUTO 11008G16KT 10SM OVC015 07/03 A2964 RMK AO2
  • 170355Z AUTO 13010G16KT 10SM OVC017 07/03 A2968 RMK AO2
  • 170335Z AUTO 13008KT 10SM SCT019 OVC025 07/03 A2970 RMK AO2
  • 170315Z AUTO 13010G16KT 10SM BKN020 OVC026 07/03 A2971 RMK AO2
  • 170255Z AUTO 15008KT 10SM BKN015 OVC022 07/03 A2974 RMK AO2

TAF N/A



MET'MAP, your aeronautical weather chart ! - Copyright ORBIFLY December 2007 - Disclaimer

ORBIFLY MET'MAP TEAM :

Programming & Development : Alexandra Zaïnal
Concept & Development : Baudouin d'Aumeries
Co-Development & Prog : Marc-Olivier Méhu
Technical & hardware support : Manuel Goepfert

Contact : metmap@orbifly.com




SOURCES & CREDITS :

   NOAA